Map

Track Data

SID SEASON NUMBER BASIN SUBBASIN NAME ISO_TIME NATURE LAT LON WMO_WIND WMO_PRES WMO_AGENCY TRACK_TYPE DIST2LAND LANDFALL IFLAG USA_AGENCY USA_ATCF_ID USA_LAT USA_LON USA_RECORD USA_STATUS USA_WIND USA_PRES USA_SSHS USA_R34_NE USA_R34_SE USA_R34_SW USA_R34_NW USA_R50_NE USA_R50_SE USA_R50_SW USA_R50_NW USA_R64_NE USA_R64_SE USA_R64_SW USA_R64_NW USA_POCI USA_ROCI USA_RMW USA_EYE TOKYO_LAT TOKYO_LON TOKYO_GRADE TOKYO_WIND TOKYO_PRES TOKYO_R50_DIR TOKYO_R50_LONG TOKYO_R50_SHORT TOKYO_R30_DIR TOKYO_R30_LONG TOKYO_R30_SHORT TOKYO_LAND CMA_LAT CMA_LON CMA_CAT CMA_WIND CMA_PRES HKO_LAT HKO_LON HKO_CAT HKO_WIND HKO_PRES NEWDELHI_LAT NEWDELHI_LON NEWDELHI_GRADE NEWDELHI_WIND NEWDELHI_PRES NEWDELHI_CI NEWDELHI_DP NEWDELHI_POCI REUNION_LAT REUNION_LON REUNION_TYPE REUNION_WIND REUNION_PRES REUNION_TNUM REUNION_CI REUNION_RMW REUNION_R34_NE REUNION_R34_SE REUNION_R34_SW REUNION_R34_NW REUNION_R50_NE REUNION_R50_SE REUNION_R50_SW REUNION_R50_NW REUNION_R64_NE REUNION_R64_SE REUNION_R64_SW REUNION_R64_NW BOM_LAT BOM_LON BOM_TYPE BOM_WIND BOM_PRES BOM_TNUM BOM_CI BOM_RMW BOM_R34_NE BOM_R34_SE BOM_R34_SW BOM_R34_NW BOM_R50_NE BOM_R50_SE BOM_R50_SW BOM_R50_NW BOM_R64_NE BOM_R64_SE BOM_R64_SW BOM_R64_NW BOM_ROCI BOM_POCI BOM_EYE BOM_POS_METHOD BOM_PRES_METHOD NADI_LAT NADI_LON NADI_CAT NADI_WIND NADI_PRES WELLINGTON_LAT WELLINGTON_LON WELLINGTON_WIND WELLINGTON_PRES DS824_LAT DS824_LON DS824_STAGE DS824_WIND DS824_PRES TD9636_LAT TD9636_LON TD9636_STAGE TD9636_WIND TD9636_PRES TD9635_LAT TD9635_LON TD9635_WIND TD9635_PRES TD9635_ROCI NEUMANN_LAT NEUMANN_LON NEUMANN_CLASS NEUMANN_WIND NEUMANN_PRES MLC_LAT MLC_LON MLC_CLASS MLC_WIND MLC_PRES USA_GUST BOM_GUST BOM_GUST_PER REUNION_GUST REUNION_GUST_PER USA_SEAHGT USA_SEARAD_NE USA_SEARAD_SE USA_SEARAD_SW USA_SEARAD_NW STORM_SPEED STORM_DIR
1898072N25301 1898 9 NA NA NOT_NAMED 1898-03-12 12:00:00 ET 25.0000 -59.5000 main 969 969 _____________O -1 25.0000 -59.5000 EX 30 2 96
1898072N25301 1898 9 NA NA NOT_NAMED 1898-03-12 15:00:00 ET 24.9900 -59.4000 main 976 976 _____________P -1 24.9900 -59.4000 EX 30 2 90
1898072N25301 1898 9 NA NA NOT_NAMED 1898-03-12 18:00:00 ET 25.0000 -59.3000 main 983 983 _____________O -1 25.0000 -59.3000 EX 30 2 74
1898072N25301 1898 9 NA NA NOT_NAMED 1898-03-12 21:00:00 ET 25.0425 -59.2000 main 990 990 _____________P -1 25.0425 -59.2000 EX 30 2 61
1898072N25301 1898 9 NA NA NOT_NAMED 1898-03-13 00:00:00 ET 25.1000 -59.1000 main 1005 1005 _____________O -1 25.1000 -59.1000 EX 30 2 59
1898072N25301 1898 9 NA NA NOT_NAMED 1898-03-13 03:00:00 ET 25.1500 -59.0000 main 1020 1012 _____________P -1 25.1500 -59.0000 EX 32 2 61
1898072N25301 1898 9 NA NA NOT_NAMED 1898-03-13 06:00:00 ET 25.2000 -58.9000 main 1027 1027 _____________O -1 25.2000 -58.9000 EX 35 2 65
1898072N25301 1898 9 NA NA NOT_NAMED 1898-03-13 09:00:00 ET 25.2275 -58.8149 main 1034 1034 _____________P -1 25.2275 -58.8149 EX 35 2 61
1898072N25301 1898 9 NA NA NOT_NAMED 1898-03-13 12:00:00 SS 25.3000 -58.7000 main 1049 1049 _____________O -1 25.3000 -58.7000 SS 35 4 46
1898072N25301 1898 9 NA NA NOT_NAMED 1898-03-13 15:00:00 SS 25.4850 -58.5151 main 1079 1079 _____________P -1 25.4850 -58.5151 SS 35 5 42
1898072N25301 1898 9 NA NA NOT_NAMED 1898-03-13 18:00:00 SS 25.7000 -58.3000 main 1109 1109 _____________O -1 25.7000 -58.3000 SS 35 5 45
1898072N25301 1898 9 NA NA NOT_NAMED 1898-03-13 21:00:00 SS 25.8499 -58.1073 main 1131 1131 _____________P -1 25.8499 -58.1073 SS 37 5 50
1898072N25301 1898 9 NA NA NOT_NAMED 1898-03-14 00:00:00 SS 26.0000 -57.9000 main 1161 1161 _____________O -1 26.0000 -57.9000 SS 40 5 50
1898072N25301 1898 9 NA NA NOT_NAMED 1898-03-14 03:00:00 SS 26.2000 -57.6501 main 1191 1191 _____________P -1 26.2000 -57.6501 SS 40 6 48
1898072N25301 1898 9 NA NA NOT_NAMED 1898-03-14 06:00:00 SS 26.4000 -57.4000 main 1228 1228 _____________O -1 26.4000 -57.4000 SS 40 6 49
1898072N25301 1898 9 NA NA NOT_NAMED 1898-03-14 09:00:00 SS 26.5650 -57.1849 main 1257 1257 _____________P -1 26.5650 -57.1849 SS 42 5 50
1898072N25301 1898 9 NA NA NOT_NAMED 1898-03-14 12:00:00 SS 26.7000 -57.0000 main 1279 1279 _____________O -1 26.7000 -57.0000 SS 45 4 53
1898072N25301 1898 9 NA NA NOT_NAMED 1898-03-14 15:00:00 SS 26.8075 -56.8200 main 1301 1301 _____________P -1 26.8075 -56.8200 SS 45 3 53
1898072N25301 1898 9 NA NA NOT_NAMED 1898-03-14 18:00:00 SS 26.9000 -56.7000 main 1316 1316 _____________O -1 26.9000 -56.7000 SS 45 2 35
1898072N25301 1898 9 NA NA NOT_NAMED 1898-03-14 21:00:00 SS 27.0000 -56.6700 main 1324 1324 _____________P -1 27.0000 -56.6700 SS 45 2 8
1898072N25301 1898 9 NA NA NOT_NAMED 1898-03-15 00:00:00 SS 27.1000 -56.7000 main 1332 1332 _____________O -1 27.1000 -56.7000 SS 45 2 343
1898072N25301 1898 9 NA NA NOT_NAMED 1898-03-15 03:00:00 SS 27.2000 -56.7350 main 1340 1333 _____________P -1 27.2000 -56.7350 SS 45 2 335
1898072N25301 1898 9 NA NA NOT_NAMED 1898-03-15 06:00:00 SS 27.3000 -56.8000 main 1341 1334 _____________O -1 27.3000 -56.8000 SS 45 3 318
1898072N25301 1898 9 NA NA NOT_NAMED 1898-03-15 09:00:00 SS 27.4150 -56.9524 main 1335 1335 _____________P -1 27.4150 -56.9524 SS 42 3 318
1898072N25301 1898 9 NA NA NOT_NAMED 1898-03-15 12:00:00 SS 27.5000 -57.0000 main 1344 1344 _____________O -1 27.5000 -57.0000 SS 40 2 60
1898072N25301 1898 9 NA NA NOT_NAMED 1898-03-15 15:00:00 SS 27.5076 -56.7674 main 1357 1357 _____________P -1 27.5076 -56.7674 SS 40 5 90
1898072N25301 1898 9 NA NA NOT_NAMED 1898-03-15 18:00:00 SS 27.5000 -56.4000 main 1384 1384 _____________O -1 27.5000 -56.4000 SS 40 6 86
1898072N25301 1898 9 NA NA NOT_NAMED 1898-03-15 21:00:00 SS 27.5575 -56.0502 main 1413 1413 _____________P -1 27.5575 -56.0502 SS 37 6 81
1898072N25301 1898 9 NA NA NOT_NAMED 1898-03-16 00:00:00 SS 27.6000 -55.7000 main 1442 1442 _____________O -1 27.6000 -55.7000 SS 35 6 90
1898072N25301 1898 9 NA NA NOT_NAMED 1898-03-16 03:00:00 SS 27.5574 -55.3923 main 1463 1463 _____________P -1 27.5574 -55.3923 SS 35 5 101
1898072N25301 1898 9 NA NA NOT_NAMED 1898-03-16 06:00:00 ET 27.5000 -55.1000 main 1478 1478 _____________O -1 27.5000 -55.1000 EX 35 5 96
1898072N25301 1898 9 NA NA NOT_NAMED 1898-03-16 09:00:00 ET 27.5068 -54.8678 main 1493 1493 _____________P -1 27.5068 -54.8678 EX 32 5 90
1898072N25301 1898 9 NA NA NOT_NAMED 1898-03-16 12:00:00 ET 27.5000 -54.5000 main 1523 1523 _____________O -1 27.5000 -54.5000 EX 30 9 96
1898072N25301 1898 9 NA NA NOT_NAMED 1898-03-16 15:00:00 ET 27.4079 -53.8171 main 1570 1570 _____________P -1 27.4079 -53.8171 EX 30 13 99
1898072N25301 1898 9 NA NA NOT_NAMED 1898-03-16 18:00:00 ET 27.3000 -53.0000 main 1627 1627 _____________O -1 27.3000 -53.0000 EX 30 14 97
1898072N25301 1898 9 NA NA NOT_NAMED 1898-03-16 21:00:00 ET 27.2353 -52.2278 main 1686 1686 _____________P -1 27.2353 -52.2278 EX 30 13 94
1898072N25301 1898 9 NA NA NOT_NAMED 1898-03-17 00:00:00 ET 27.2000 -51.5000 main 1745 _____________O -1 27.2000 -51.5000 EX 30 13 93

About IBTrACS Database

This database is a web-friendly format of International Best Track Archive for Climate Stewardship (IBTrACS), a global best track data archive curated by NOAA dating back to 1842.

Updated: 2021-10-25